sensor_id;sensor_type;location;lat;lon;timestamp;P1;durP1;ratioP1;P2;durP2;ratioP2
77123;SDS011;66079;47.646;19.130;2023-01-08T00:02:39;61.70;;;22.40;;
77123;SDS011;66079;47.646;19.130;2023-01-08T00:05:42;65.40;;;22.17;;
77123;SDS011;66079;47.646;19.130;2023-01-08T00:08:44;59.33;;;21.15;;
77123;SDS011;66079;47.646;19.130;2023-01-08T00:11:47;64.40;;;21.85;;
77123;SDS011;66079;47.646;19.130;2023-01-08T00:14:50;67.85;;;21.17;;
77123;SDS011;66079;47.646;19.130;2023-01-08T00:17:53;58.13;;;21.88;;
77123;SDS011;66079;47.646;19.130;2023-01-08T00:20:55;61.40;;;20.93;;
77123;SDS011;66079;47.646;19.130;2023-01-08T00:23:58;63.75;;;21.98;;
77123;SDS011;66079;47.646;19.130;2023-01-08T00:27:00;70.30;;;22.27;;
77123;SDS011;66079;47.646;19.130;2023-01-08T00:30:06;62.25;;;21.08;;
77123;SDS011;66079;47.646;19.130;2023-01-08T00:33:10;68.03;;;21.83;;
77123;SDS011;66079;47.646;19.130;2023-01-08T00:36:13;64.47;;;20.33;;
77123;SDS011;66079;47.646;19.130;2023-01-08T00:39:18;72.22;;;22.52;;
77123;SDS011;66079;47.646;19.130;2023-01-08T00:42:21;67.28;;;21.55;;
77123;SDS011;66079;47.646;19.130;2023-01-08T00:45:24;62.67;;;21.50;;
77123;SDS011;66079;47.646;19.130;2023-01-08T00:48:26;65.93;;;21.73;;
77123;SDS011;66079;47.646;19.130;2023-01-08T00:51:29;56.17;;;20.83;;
77123;SDS011;66079;47.646;19.130;2023-01-08T00:54:31;65.00;;;21.75;;
77123;SDS011;66079;47.646;19.130;2023-01-08T00:57:35;64.13;;;20.85;;
77123;SDS011;66079;47.646;19.130;2023-01-08T01:00:39;67.22;;;20.77;;
77123;SDS011;66079;47.646;19.130;2023-01-08T01:03:42;65.78;;;21.55;;
77123;SDS011;66079;47.646;19.130;2023-01-08T01:06:44;65.77;;;19.93;;
77123;SDS011;66079;47.646;19.130;2023-01-08T01:09:47;59.88;;;20.40;;
77123;SDS011;66079;47.646;19.130;2023-01-08T01:12:50;60.47;;;20.38;;
77123;SDS011;66079;47.646;19.130;2023-01-08T01:15:56;58.45;;;20.25;;
77123;SDS011;66079;47.646;19.130;2023-01-08T01:19:02;59.35;;;21.40;;
77123;SDS011;66079;47.646;19.130;2023-01-08T01:22:05;62.37;;;20.40;;
77123;SDS011;66079;47.646;19.130;2023-01-08T01:25:07;65.78;;;21.13;;
77123;SDS011;66079;47.646;19.130;2023-01-08T01:28:11;64.60;;;21.67;;
77123;SDS011;66079;47.646;19.130;2023-01-08T01:31:13;63.22;;;21.40;;
77123;SDS011;66079;47.646;19.130;2023-01-08T01:34:16;65.95;;;22.35;;
77123;SDS011;66079;47.646;19.130;2023-01-08T01:37:19;57.10;;;20.97;;
77123;SDS011;66079;47.646;19.130;2023-01-08T01:40:22;59.30;;;20.88;;
77123;SDS011;66079;47.646;19.130;2023-01-08T01:43:38;60.67;;;20.77;;
77123;SDS011;66079;47.646;19.130;2023-01-08T01:46:42;61.38;;;21.27;;
77123;SDS011;66079;47.646;19.130;2023-01-08T01:49:49;54.67;;;19.85;;
77123;SDS011;66079;47.646;19.130;2023-01-08T01:53:12;55.53;;;20.60;;
77123;SDS011;66079;47.646;19.130;2023-01-08T01:56:15;54.72;;;20.42;;
77123;SDS011;66079;47.646;19.130;2023-01-08T01:59:18;59.78;;;20.67;;
77123;SDS011;66079;47.646;19.130;2023-01-08T02:02:20;58.30;;;19.85;;
77123;SDS011;66079;47.646;19.130;2023-01-08T02:05:24;54.90;;;20.13;;
77123;SDS011;66079;47.646;19.130;2023-01-08T02:15:20;56.63;;;19.40;;
77123;SDS011;66079;47.646;19.130;2023-01-08T02:18:33;57.50;;;19.33;;
77123;SDS011;66079;47.646;19.130;2023-01-08T02:22:11;48.38;;;19.23;;
77123;SDS011;66079;47.646;19.130;2023-01-08T02:28:41;49.22;;;18.63;;
77123;SDS011;66079;47.646;19.130;2023-01-08T02:31:44;47.10;;;17.85;;
77123;SDS011;66079;47.646;19.130;2023-01-08T02:34:47;49.25;;;19.08;;
77123;SDS011;66079;47.646;19.130;2023-01-08T02:37:50;45.35;;;18.40;;
77123;SDS011;66079;47.646;19.130;2023-01-08T02:40:58;41.20;;;16.93;;
77123;SDS011;66079;47.646;19.130;2023-01-08T02:44:09;49.80;;;18.13;;
77123;SDS011;66079;47.646;19.130;2023-01-08T02:50:38;40.10;;;17.73;;
77123;SDS011;66079;47.646;19.130;2023-01-08T02:53:42;40.97;;;16.58;;
77123;SDS011;66079;47.646;19.130;2023-01-08T02:56:50;46.43;;;17.87;;
77123;SDS011;66079;47.646;19.130;2023-01-08T02:59:57;39.65;;;16.80;;
77123;SDS011;66079;47.646;19.130;2023-01-08T03:03:08;39.88;;;16.95;;
77123;SDS011;66079;47.646;19.130;2023-01-08T03:06:14;40.65;;;17.98;;
77123;SDS011;66079;47.646;19.130;2023-01-08T03:09:20;41.78;;;17.20;;
77123;SDS011;66079;47.646;19.130;2023-01-08T03:12:23;38.00;;;17.20;;
77123;SDS011;66079;47.646;19.130;2023-01-08T03:15:39;42.63;;;16.98;;
77123;SDS011;66079;47.646;19.130;2023-01-08T03:18:50;38.55;;;16.75;;
77123;SDS011;66079;47.646;19.130;2023-01-08T03:21:55;41.00;;;17.13;;
77123;SDS011;66079;47.646;19.130;2023-01-08T03:25:00;38.33;;;16.58;;
77123;SDS011;66079;47.646;19.130;2023-01-08T03:28:06;39.07;;;17.03;;
77123;SDS011;66079;47.646;19.130;2023-01-08T03:31:13;36.42;;;17.15;;
77123;SDS011;66079;47.646;19.130;2023-01-08T03:34:17;43.92;;;17.70;;
77123;SDS011;66079;47.646;19.130;2023-01-08T03:37:23;38.53;;;16.05;;
77123;SDS011;66079;47.646;19.130;2023-01-08T03:40:34;38.28;;;16.52;;
77123;SDS011;66079;47.646;19.130;2023-01-08T03:43:41;41.77;;;17.37;;
77123;SDS011;66079;47.646;19.130;2023-01-08T03:46:47;36.80;;;16.20;;
77123;SDS011;66079;47.646;19.130;2023-01-08T03:49:53;37.55;;;16.33;;
77123;SDS011;66079;47.646;19.130;2023-01-08T03:52:58;35.97;;;16.60;;
77123;SDS011;66079;47.646;19.130;2023-01-08T03:56:02;36.15;;;16.70;;
77123;SDS011;66079;47.646;19.130;2023-01-08T03:59:04;40.80;;;17.17;;
77123;SDS011;66079;47.646;19.130;2023-01-08T04:02:08;36.47;;;16.40;;
77123;SDS011;66079;47.646;19.130;2023-01-08T04:05:11;38.17;;;17.15;;
77123;SDS011;66079;47.646;19.130;2023-01-08T04:08:13;36.58;;;16.08;;
77123;SDS011;66079;47.646;19.130;2023-01-08T04:11:16;33.20;;;16.08;;
77123;SDS011;66079;47.646;19.130;2023-01-08T04:14:18;34.30;;;15.63;;
77123;SDS011;66079;47.646;19.130;2023-01-08T04:17:21;34.67;;;15.70;;
77123;SDS011;66079;47.646;19.130;2023-01-08T04:20:23;34.33;;;16.40;;
77123;SDS011;66079;47.646;19.130;2023-01-08T04:23:26;31.90;;;16.23;;
77123;SDS011;66079;47.646;19.130;2023-01-08T04:26:28;31.88;;;14.68;;
77123;SDS011;66079;47.646;19.130;2023-01-08T04:29:31;33.17;;;16.20;;
77123;SDS011;66079;47.646;19.130;2023-01-08T04:32:34;33.40;;;15.50;;
77123;SDS011;66079;47.646;19.130;2023-01-08T04:35:36;33.30;;;16.08;;
77123;SDS011;66079;47.646;19.130;2023-01-08T04:38:39;35.70;;;17.00;;
77123;SDS011;66079;47.646;19.130;2023-01-08T04:41:42;34.45;;;16.17;;
77123;SDS011;66079;47.646;19.130;2023-01-08T04:44:45;37.83;;;15.87;;
77123;SDS011;66079;47.646;19.130;2023-01-08T04:47:47;38.58;;;17.17;;
77123;SDS011;66079;47.646;19.130;2023-01-08T04:50:50;35.03;;;15.93;;
77123;SDS011;66079;47.646;19.130;2023-01-08T04:53:52;36.15;;;15.20;;
77123;SDS011;66079;47.646;19.130;2023-01-08T04:56:55;32.80;;;15.85;;
77123;SDS011;66079;47.646;19.130;2023-01-08T04:59:58;33.20;;;16.20;;
77123;SDS011;66079;47.646;19.130;2023-01-08T05:03:00;35.08;;;16.13;;
77123;SDS011;66079;47.646;19.130;2023-01-08T05:06:03;34.00;;;16.35;;
77123;SDS011;66079;47.646;19.130;2023-01-08T05:09:06;38.15;;;16.65;;
77123;SDS011;66079;47.646;19.130;2023-01-08T05:12:08;33.63;;;16.45;;
77123;SDS011;66079;47.646;19.130;2023-01-08T05:15:11;37.07;;;16.80;;
77123;SDS011;66079;47.646;19.130;2023-01-08T05:18:13;33.75;;;15.75;;
77123;SDS011;66079;47.646;19.130;2023-01-08T05:21:16;36.95;;;17.48;;
77123;SDS011;66079;47.646;19.130;2023-01-08T05:24:19;40.70;;;17.60;;
77123;SDS011;66079;47.646;19.130;2023-01-08T05:27:21;36.75;;;17.00;;
77123;SDS011;66079;47.646;19.130;2023-01-08T05:30:24;39.07;;;16.73;;
77123;SDS011;66079;47.646;19.130;2023-01-08T05:33:26;34.72;;;16.55;;
77123;SDS011;66079;47.646;19.130;2023-01-08T05:36:29;37.13;;;16.95;;
77123;SDS011;66079;47.646;19.130;2023-01-08T05:39:32;38.53;;;17.17;;
77123;SDS011;66079;47.646;19.130;2023-01-08T05:42:35;41.95;;;18.02;;
77123;SDS011;66079;47.646;19.130;2023-01-08T05:45:37;44.03;;;18.43;;
77123;SDS011;66079;47.646;19.130;2023-01-08T05:48:40;39.53;;;17.63;;
77123;SDS011;66079;47.646;19.130;2023-01-08T05:51:42;46.90;;;18.13;;
77123;SDS011;66079;47.646;19.130;2023-01-08T05:54:45;39.83;;;17.95;;
77123;SDS011;66079;47.646;19.130;2023-01-08T05:57:47;42.05;;;17.50;;
77123;SDS011;66079;47.646;19.130;2023-01-08T06:00:51;41.93;;;18.37;;
77123;SDS011;66079;47.646;19.130;2023-01-08T06:03:54;39.22;;;18.48;;
77123;SDS011;66079;47.646;19.130;2023-01-08T06:06:57;36.22;;;17.83;;
77123;SDS011;66079;47.646;19.130;2023-01-08T06:10:01;38.67;;;17.30;;
77123;SDS011;66079;47.646;19.130;2023-01-08T06:13:08;41.92;;;18.05;;
77123;SDS011;66079;47.646;19.130;2023-01-08T06:16:11;39.77;;;18.43;;
77123;SDS011;66079;47.646;19.130;2023-01-08T06:19:14;38.70;;;17.25;;
77123;SDS011;66079;47.646;19.130;2023-01-08T06:22:17;38.70;;;17.65;;
77123;SDS011;66079;47.646;19.130;2023-01-08T06:25:19;38.92;;;17.25;;
77123;SDS011;66079;47.646;19.130;2023-01-08T06:28:23;38.25;;;17.83;;
77123;SDS011;66079;47.646;19.130;2023-01-08T06:31:26;38.03;;;18.07;;
77123;SDS011;66079;47.646;19.130;2023-01-08T06:34:28;40.47;;;18.50;;
77123;SDS011;66079;47.646;19.130;2023-01-08T06:37:31;37.40;;;17.40;;
77123;SDS011;66079;47.646;19.130;2023-01-08T06:40:33;40.35;;;18.50;;
77123;SDS011;66079;47.646;19.130;2023-01-08T06:43:36;44.33;;;18.67;;
77123;SDS011;66079;47.646;19.130;2023-01-08T06:46:40;37.47;;;18.73;;
77123;SDS011;66079;47.646;19.130;2023-01-08T06:49:43;37.83;;;17.48;;
77123;SDS011;66079;47.646;19.130;2023-01-08T06:52:52;44.35;;;19.27;;
77123;SDS011;66079;47.646;19.130;2023-01-08T06:55:56;37.13;;;17.50;;
77123;SDS011;66079;47.646;19.130;2023-01-08T06:58:59;34.67;;;17.65;;
77123;SDS011;66079;47.646;19.130;2023-01-08T07:02:02;38.83;;;18.50;;
77123;SDS011;66079;47.646;19.130;2023-01-08T07:05:05;39.47;;;17.55;;
77123;SDS011;66079;47.646;19.130;2023-01-08T07:08:12;38.65;;;17.83;;
77123;SDS011;66079;47.646;19.130;2023-01-08T07:11:16;38.65;;;17.80;;
77123;SDS011;66079;47.646;19.130;2023-01-08T07:14:18;39.40;;;17.67;;
77123;SDS011;66079;47.646;19.130;2023-01-08T07:17:21;38.77;;;17.53;;
77123;SDS011;66079;47.646;19.130;2023-01-08T07:20:24;35.83;;;17.02;;
77123;SDS011;66079;47.646;19.130;2023-01-08T07:23:26;37.78;;;18.17;;
77123;SDS011;66079;47.646;19.130;2023-01-08T07:26:29;36.85;;;17.67;;
77123;SDS011;66079;47.646;19.130;2023-01-08T07:29:31;39.33;;;18.75;;
77123;SDS011;66079;47.646;19.130;2023-01-08T07:32:34;37.03;;;17.97;;
77123;SDS011;66079;47.646;19.130;2023-01-08T07:35:36;33.92;;;16.50;;
77123;SDS011;66079;47.646;19.130;2023-01-08T07:38:40;36.53;;;17.90;;
77123;SDS011;66079;47.646;19.130;2023-01-08T07:41:43;33.83;;;17.58;;
77123;SDS011;66079;47.646;19.130;2023-01-08T07:44:46;37.30;;;17.52;;
77123;SDS011;66079;47.646;19.130;2023-01-08T07:47:48;32.73;;;17.30;;
77123;SDS011;66079;47.646;19.130;2023-01-08T07:50:51;32.55;;;15.50;;
77123;SDS011;66079;47.646;19.130;2023-01-08T07:53:53;35.35;;;17.35;;
77123;SDS011;66079;47.646;19.130;2023-01-08T07:56:57;37.92;;;16.40;;
77123;SDS011;66079;47.646;19.130;2023-01-08T08:00:00;37.55;;;16.88;;
77123;SDS011;66079;47.646;19.130;2023-01-08T08:03:07;36.30;;;17.13;;
77123;SDS011;66079;47.646;19.130;2023-01-08T08:06:12;37.90;;;17.85;;
77123;SDS011;66079;47.646;19.130;2023-01-08T08:09:15;36.00;;;17.38;;
77123;SDS011;66079;47.646;19.130;2023-01-08T08:12:17;38.80;;;19.25;;
77123;SDS011;66079;47.646;19.130;2023-01-08T08:15:20;38.40;;;17.60;;
77123;SDS011;66079;47.646;19.130;2023-01-08T08:18:23;37.70;;;18.33;;
77123;SDS011;66079;47.646;19.130;2023-01-08T08:21:26;38.60;;;16.90;;
77123;SDS011;66079;47.646;19.130;2023-01-08T08:24:30;35.42;;;16.83;;
77123;SDS011;66079;47.646;19.130;2023-01-08T08:27:32;37.17;;;17.02;;
77123;SDS011;66079;47.646;19.130;2023-01-08T08:30:36;36.28;;;17.58;;
77123;SDS011;66079;47.646;19.130;2023-01-08T08:33:41;35.67;;;16.60;;
77123;SDS011;66079;47.646;19.130;2023-01-08T08:36:44;35.10;;;16.85;;
77123;SDS011;66079;47.646;19.130;2023-01-08T08:39:46;37.60;;;17.58;;
77123;SDS011;66079;47.646;19.130;2023-01-08T08:42:53;34.85;;;16.55;;
77123;SDS011;66079;47.646;19.130;2023-01-08T08:45:57;38.10;;;17.17;;
77123;SDS011;66079;47.646;19.130;2023-01-08T08:49:00;34.83;;;16.93;;
77123;SDS011;66079;47.646;19.130;2023-01-08T08:52:03;33.95;;;16.25;;
77123;SDS011;66079;47.646;19.130;2023-01-08T08:55:06;34.97;;;16.42;;
77123;SDS011;66079;47.646;19.130;2023-01-08T08:58:09;36.78;;;16.95;;
77123;SDS011;66079;47.646;19.130;2023-01-08T09:01:14;33.70;;;16.38;;
77123;SDS011;66079;47.646;19.130;2023-01-08T09:04:16;33.50;;;16.37;;
77123;SDS011;66079;47.646;19.130;2023-01-08T09:07:19;35.05;;;17.33;;
77123;SDS011;66079;47.646;19.130;2023-01-08T09:10:22;35.67;;;17.02;;
77123;SDS011;66079;47.646;19.130;2023-01-08T09:13:24;35.60;;;16.00;;
77123;SDS011;66079;47.646;19.130;2023-01-08T09:16:27;34.95;;;16.63;;
77123;SDS011;66079;47.646;19.130;2023-01-08T09:19:30;38.17;;;18.57;;
77123;SDS011;66079;47.646;19.130;2023-01-08T09:22:32;36.67;;;17.80;;
77123;SDS011;66079;47.646;19.130;2023-01-08T09:25:35;34.42;;;16.92;;
77123;SDS011;66079;47.646;19.130;2023-01-08T09:28:37;35.40;;;17.98;;
77123;SDS011;66079;47.646;19.130;2023-01-08T09:31:40;38.43;;;17.97;;
77123;SDS011;66079;47.646;19.130;2023-01-08T09:34:42;33.43;;;16.67;;
77123;SDS011;66079;47.646;19.130;2023-01-08T09:37:48;30.95;;;16.48;;
77123;SDS011;66079;47.646;19.130;2023-01-08T09:43:55;30.42;;;15.80;;
77123;SDS011;66079;47.646;19.130;2023-01-08T09:46:59;31.87;;;16.17;;
77123;SDS011;66079;47.646;19.130;2023-01-08T09:50:04;37.17;;;16.63;;
77123;SDS011;66079;47.646;19.130;2023-01-08T09:53:12;33.28;;;17.05;;
77123;SDS011;66079;47.646;19.130;2023-01-08T09:56:17;29.80;;;15.50;;
77123;SDS011;66079;47.646;19.130;2023-01-08T09:59:20;31.52;;;15.82;;
77123;SDS011;66079;47.646;19.130;2023-01-08T10:02:23;29.97;;;16.37;;
77123;SDS011;66079;47.646;19.130;2023-01-08T10:05:27;30.25;;;16.60;;
77123;SDS011;66079;47.646;19.130;2023-01-08T10:08:31;34.22;;;17.65;;
77123;SDS011;66079;47.646;19.130;2023-01-08T10:11:43;32.78;;;16.73;;
77123;SDS011;66079;47.646;19.130;2023-01-08T10:14:48;33.90;;;17.10;;
77123;SDS011;66079;47.646;19.130;2023-01-08T10:17:55;29.50;;;15.80;;
77123;SDS011;66079;47.646;19.130;2023-01-08T10:21:03;30.42;;;16.05;;
77123;SDS011;66079;47.646;19.130;2023-01-08T10:24:06;31.63;;;16.30;;
77123;SDS011;66079;47.646;19.130;2023-01-08T10:27:13;28.50;;;16.08;;
77123;SDS011;66079;47.646;19.130;2023-01-08T10:33:45;30.57;;;16.17;;
77123;SDS011;66079;47.646;19.130;2023-01-08T10:36:50;29.67;;;16.42;;
77123;SDS011;66079;47.646;19.130;2023-01-08T10:40:03;31.13;;;16.33;;
77123;SDS011;66079;47.646;19.130;2023-01-08T10:46:23;30.27;;;17.25;;
77123;SDS011;66079;47.646;19.130;2023-01-08T10:49:30;31.20;;;16.00;;
77123;SDS011;66079;47.646;19.130;2023-01-08T10:52:37;27.70;;;15.80;;
77123;SDS011;66079;47.646;19.130;2023-01-08T10:55:40;30.25;;;16.50;;
77123;SDS011;66079;47.646;19.130;2023-01-08T10:58:43;29.13;;;15.65;;
77123;SDS011;66079;47.646;19.130;2023-01-08T11:01:47;26.25;;;15.57;;
77123;SDS011;66079;47.646;19.130;2023-01-08T11:04:51;24.53;;;14.87;;
77123;SDS011;66079;47.646;19.130;2023-01-08T11:07:55;24.90;;;15.18;;
77123;SDS011;66079;47.646;19.130;2023-01-08T11:11:00;24.00;;;14.52;;
77123;SDS011;66079;47.646;19.130;2023-01-08T11:14:04;23.08;;;13.90;;
77123;SDS011;66079;47.646;19.130;2023-01-08T11:17:23;22.83;;;14.32;;
77123;SDS011;66079;47.646;19.130;2023-01-08T11:20:28;21.93;;;13.97;;
77123;SDS011;66079;47.646;19.130;2023-01-08T11:23:31;24.52;;;14.55;;
77123;SDS011;66079;47.646;19.130;2023-01-08T11:26:34;23.15;;;13.50;;
77123;SDS011;66079;47.646;19.130;2023-01-08T11:33:04;23.70;;;15.32;;
77123;SDS011;66079;47.646;19.130;2023-01-08T11:36:21;24.20;;;14.80;;
77123;SDS011;66079;47.646;19.130;2023-01-08T11:39:29;26.23;;;15.07;;
77123;SDS011;66079;47.646;19.130;2023-01-08T12:02:53;31.50;;;17.52;;
77123;SDS011;66079;47.646;19.130;2023-01-08T12:26:24;32.70;;;17.53;;
77123;SDS011;66079;47.646;19.130;2023-01-08T12:32:55;34.50;;;20.02;;
77123;SDS011;66079;47.646;19.130;2023-01-08T12:36:04;34.15;;;19.08;;
77123;SDS011;66079;47.646;19.130;2023-01-08T12:39:11;33.85;;;19.98;;
77123;SDS011;66079;47.646;19.130;2023-01-08T12:42:20;36.50;;;20.07;;
77123;SDS011;66079;47.646;19.130;2023-01-08T12:45:28;37.88;;;22.00;;
77123;SDS011;66079;47.646;19.130;2023-01-08T12:48:36;33.45;;;19.48;;
77123;SDS011;66079;47.646;19.130;2023-01-08T12:55:16;36.40;;;20.05;;
77123;SDS011;66079;47.646;19.130;2023-01-08T12:58:51;36.40;;;21.63;;
77123;SDS011;66079;47.646;19.130;2023-01-08T13:02:14;34.20;;;20.50;;
77123;SDS011;66079;47.646;19.130;2023-01-08T13:05:39;35.78;;;21.67;;
77123;SDS011;66079;47.646;19.130;2023-01-08T13:08:44;37.25;;;21.27;;
77123;SDS011;66079;47.646;19.130;2023-01-08T13:11:51;37.60;;;22.75;;
77123;SDS011;66079;47.646;19.130;2023-01-08T13:14:55;34.27;;;21.63;;
77123;SDS011;66079;47.646;19.130;2023-01-08T13:18:03;36.05;;;22.10;;
77123;SDS011;66079;47.646;19.130;2023-01-08T13:21:09;36.25;;;22.23;;
77123;SDS011;66079;47.646;19.130;2023-01-08T13:27:38;38.28;;;22.23;;
77123;SDS011;66079;47.646;19.130;2023-01-08T13:30:41;40.97;;;23.43;;
77123;SDS011;66079;47.646;19.130;2023-01-08T13:33:44;41.05;;;23.85;;
77123;SDS011;66079;47.646;19.130;2023-01-08T13:36:55;40.53;;;24.45;;
77123;SDS011;66079;47.646;19.130;2023-01-08T13:39:59;45.17;;;25.48;;
77123;SDS011;66079;47.646;19.130;2023-01-08T13:43:02;42.72;;;25.65;;
77123;SDS011;66079;47.646;19.130;2023-01-08T13:46:14;43.43;;;24.20;;
77123;SDS011;66079;47.646;19.130;2023-01-08T13:49:26;42.28;;;24.77;;
77123;SDS011;66079;47.646;19.130;2023-01-08T13:52:40;42.90;;;24.13;;
77123;SDS011;66079;47.646;19.130;2023-01-08T13:56:06;42.05;;;24.40;;
77123;SDS011;66079;47.646;19.130;2023-01-08T14:02:44;44.73;;;25.30;;
77123;SDS011;66079;47.646;19.130;2023-01-08T14:05:52;49.60;;;26.23;;
77123;SDS011;66079;47.646;19.130;2023-01-08T14:09:12;44.20;;;26.83;;
77123;SDS011;66079;47.646;19.130;2023-01-08T14:12:24;48.17;;;26.10;;
77123;SDS011;66079;47.646;19.130;2023-01-08T14:15:27;47.03;;;27.20;;
77123;SDS011;66079;47.646;19.130;2023-01-08T14:18:30;48.10;;;27.73;;
77123;SDS011;66079;47.646;19.130;2023-01-08T14:21:33;53.05;;;29.77;;
77123;SDS011;66079;47.646;19.130;2023-01-08T14:24:36;48.83;;;28.77;;
77123;SDS011;66079;47.646;19.130;2023-01-08T14:27:38;49.60;;;29.33;;
77123;SDS011;66079;47.646;19.130;2023-01-08T14:30:48;51.72;;;28.92;;
77123;SDS011;66079;47.646;19.130;2023-01-08T14:33:56;50.63;;;29.33;;
77123;SDS011;66079;47.646;19.130;2023-01-08T14:37:00;55.30;;;29.85;;
77123;SDS011;66079;47.646;19.130;2023-01-08T14:40:11;51.55;;;29.70;;
77123;SDS011;66079;47.646;19.130;2023-01-08T14:43:16;51.28;;;28.58;;
77123;SDS011;66079;47.646;19.130;2023-01-08T14:46:24;48.17;;;29.27;;
77123;SDS011;66079;47.646;19.130;2023-01-08T14:49:29;50.73;;;28.67;;
77123;SDS011;66079;47.646;19.130;2023-01-08T14:52:38;48.90;;;28.48;;
77123;SDS011;66079;47.646;19.130;2023-01-08T14:55:42;51.25;;;30.52;;
77123;SDS011;66079;47.646;19.130;2023-01-08T14:58:48;51.38;;;28.60;;
77123;SDS011;66079;47.646;19.130;2023-01-08T15:01:53;52.35;;;29.60;;
77123;SDS011;66079;47.646;19.130;2023-01-08T15:05:14;50.67;;;27.10;;
77123;SDS011;66079;47.646;19.130;2023-01-08T15:08:24;45.17;;;26.98;;
77123;SDS011;66079;47.646;19.130;2023-01-08T15:11:32;47.70;;;27.05;;
77123;SDS011;66079;47.646;19.130;2023-01-08T15:14:50;48.33;;;28.00;;
77123;SDS011;66079;47.646;19.130;2023-01-08T15:17:52;51.00;;;28.58;;
77123;SDS011;66079;47.646;19.130;2023-01-08T15:20:55;48.17;;;28.10;;
77123;SDS011;66079;47.646;19.130;2023-01-08T15:23:58;48.13;;;28.83;;
77123;SDS011;66079;47.646;19.130;2023-01-08T15:27:02;51.83;;;29.23;;
77123;SDS011;66079;47.646;19.130;2023-01-08T15:30:25;45.40;;;27.33;;
77123;SDS011;66079;47.646;19.130;2023-01-08T15:33:40;51.97;;;29.17;;
77123;SDS011;66079;47.646;19.130;2023-01-08T15:36:46;51.07;;;27.07;;
77123;SDS011;66079;47.646;19.130;2023-01-08T15:39:49;51.88;;;28.73;;
77123;SDS011;66079;47.646;19.130;2023-01-08T15:42:51;51.20;;;28.80;;
77123;SDS011;66079;47.646;19.130;2023-01-08T15:46:12;49.92;;;28.92;;
77123;SDS011;66079;47.646;19.130;2023-01-08T15:49:16;50.17;;;29.40;;
77123;SDS011;66079;47.646;19.130;2023-01-08T15:52:19;55.73;;;31.33;;
77123;SDS011;66079;47.646;19.130;2023-01-08T15:55:25;59.40;;;32.60;;
77123;SDS011;66079;47.646;19.130;2023-01-08T15:58:28;54.15;;;31.00;;
77123;SDS011;66079;47.646;19.130;2023-01-08T16:01:31;52.85;;;29.88;;
77123;SDS011;66079;47.646;19.130;2023-01-08T16:04:34;52.63;;;29.77;;
77123;SDS011;66079;47.646;19.130;2023-01-08T16:07:40;52.03;;;30.70;;
77123;SDS011;66079;47.646;19.130;2023-01-08T16:10:43;53.80;;;30.95;;
77123;SDS011;66079;47.646;19.130;2023-01-08T16:13:46;54.20;;;31.17;;
77123;SDS011;66079;47.646;19.130;2023-01-08T16:16:49;54.83;;;31.67;;
77123;SDS011;66079;47.646;19.130;2023-01-08T16:19:52;52.00;;;29.77;;
77123;SDS011;66079;47.646;19.130;2023-01-08T16:22:54;51.47;;;29.97;;
77123;SDS011;66079;47.646;19.130;2023-01-08T16:25:58;48.83;;;29.13;;
77123;SDS011;66079;47.646;19.130;2023-01-08T16:29:00;54.25;;;31.90;;
77123;SDS011;66079;47.646;19.130;2023-01-08T16:32:03;54.47;;;31.67;;
77123;SDS011;66079;47.646;19.130;2023-01-08T16:35:06;58.00;;;32.97;;
77123;SDS011;66079;47.646;19.130;2023-01-08T16:38:11;57.73;;;31.30;;
77123;SDS011;66079;47.646;19.130;2023-01-08T16:41:14;53.15;;;30.15;;
77123;SDS011;66079;47.646;19.130;2023-01-08T16:44:21;52.35;;;30.55;;
77123;SDS011;66079;47.646;19.130;2023-01-08T16:47:28;45.85;;;28.13;;
77123;SDS011;66079;47.646;19.130;2023-01-08T16:50:31;47.10;;;27.80;;
77123;SDS011;66079;47.646;19.130;2023-01-08T16:53:34;45.30;;;26.80;;
77123;SDS011;66079;47.646;19.130;2023-01-08T16:56:37;49.58;;;28.00;;
77123;SDS011;66079;47.646;19.130;2023-01-08T16:59:40;51.28;;;28.15;;
77123;SDS011;66079;47.646;19.130;2023-01-08T17:02:43;47.50;;;27.33;;
77123;SDS011;66079;47.646;19.130;2023-01-08T17:05:46;45.83;;;27.42;;
77123;SDS011;66079;47.646;19.130;2023-01-08T17:08:49;47.37;;;28.50;;
77123;SDS011;66079;47.646;19.130;2023-01-08T17:11:52;45.13;;;26.92;;
77123;SDS011;66079;47.646;19.130;2023-01-08T17:14:55;45.80;;;27.40;;
77123;SDS011;66079;47.646;19.130;2023-01-08T17:17:57;48.38;;;28.17;;
77123;SDS011;66079;47.646;19.130;2023-01-08T17:21:00;49.38;;;28.33;;
77123;SDS011;66079;47.646;19.130;2023-01-08T17:24:03;48.53;;;28.63;;
77123;SDS011;66079;47.646;19.130;2023-01-08T17:27:07;53.88;;;29.58;;
77123;SDS011;66079;47.646;19.130;2023-01-08T17:30:10;52.60;;;30.13;;
77123;SDS011;66079;47.646;19.130;2023-01-08T17:33:14;53.28;;;31.02;;
77123;SDS011;66079;47.646;19.130;2023-01-08T17:36:17;53.70;;;30.85;;
77123;SDS011;66079;47.646;19.130;2023-01-08T17:39:22;48.60;;;29.13;;
77123;SDS011;66079;47.646;19.130;2023-01-08T17:42:24;48.47;;;28.60;;
77123;SDS011;66079;47.646;19.130;2023-01-08T17:45:28;48.58;;;27.65;;
77123;SDS011;66079;47.646;19.130;2023-01-08T17:48:31;48.90;;;29.35;;
77123;SDS011;66079;47.646;19.130;2023-01-08T17:51:34;51.97;;;29.80;;
77123;SDS011;66079;47.646;19.130;2023-01-08T17:54:39;48.57;;;27.90;;
77123;SDS011;66079;47.646;19.130;2023-01-08T17:57:42;46.65;;;27.05;;
77123;SDS011;66079;47.646;19.130;2023-01-08T18:00:45;46.88;;;27.55;;
77123;SDS011;66079;47.646;19.130;2023-01-08T18:03:47;51.05;;;28.52;;
77123;SDS011;66079;47.646;19.130;2023-01-08T18:06:50;49.10;;;28.02;;
77123;SDS011;66079;47.646;19.130;2023-01-08T18:09:53;48.27;;;27.40;;
77123;SDS011;66079;47.646;19.130;2023-01-08T18:12:57;48.95;;;27.67;;
77123;SDS011;66079;47.646;19.130;2023-01-08T18:16:01;49.20;;;27.95;;
77123;SDS011;66079;47.646;19.130;2023-01-08T18:19:08;48.38;;;28.63;;
77123;SDS011;66079;47.646;19.130;2023-01-08T18:22:10;55.15;;;29.85;;
77123;SDS011;66079;47.646;19.130;2023-01-08T18:25:13;49.30;;;28.53;;
77123;SDS011;66079;47.646;19.130;2023-01-08T18:28:16;52.30;;;29.65;;
77123;SDS011;66079;47.646;19.130;2023-01-08T18:31:19;52.13;;;30.27;;
77123;SDS011;66079;47.646;19.130;2023-01-08T18:34:22;55.55;;;31.30;;
77123;SDS011;66079;47.646;19.130;2023-01-08T18:37:25;54.67;;;30.63;;
77123;SDS011;66079;47.646;19.130;2023-01-08T18:40:28;55.87;;;32.20;;
77123;SDS011;66079;47.646;19.130;2023-01-08T18:43:31;60.80;;;33.60;;
77123;SDS011;66079;47.646;19.130;2023-01-08T18:46:36;59.47;;;34.40;;
77123;SDS011;66079;47.646;19.130;2023-01-08T18:49:39;56.33;;;32.60;;
77123;SDS011;66079;47.646;19.130;2023-01-08T18:52:42;60.33;;;34.13;;
77123;SDS011;66079;47.646;19.130;2023-01-08T18:55:45;60.80;;;34.63;;
77123;SDS011;66079;47.646;19.130;2023-01-08T18:58:47;62.38;;;34.10;;
77123;SDS011;66079;47.646;19.130;2023-01-08T19:01:50;63.15;;;34.80;;
77123;SDS011;66079;47.646;19.130;2023-01-08T19:04:53;62.20;;;33.47;;
77123;SDS011;66079;47.646;19.130;2023-01-08T19:07:56;60.27;;;33.83;;